sensor_id;sensor_type;location;lat;lon;timestamp;pressure;altitude;pressure_sealevel;temperature;humidity
77017;BME280;65949;53.132;17.930;2023-09-18T00:00:04;101162.48;;;16.56;79.46
77017;BME280;65949;53.132;17.930;2023-09-18T00:02:58;101163.94;;;16.54;79.49
77017;BME280;65949;53.132;17.930;2023-09-18T00:05:25;101162.80;;;16.50;79.40
77017;BME280;65949;53.132;17.930;2023-09-18T00:07:52;101166.07;;;16.50;79.66
77017;BME280;65949;53.132;17.930;2023-09-18T00:10:18;101163.48;;;16.48;80.02
77017;BME280;65949;53.132;17.930;2023-09-18T00:12:45;101160.18;;;16.45;80.10
77017;BME280;65949;53.132;17.930;2023-09-18T00:15:11;101159.94;;;16.41;80.11
77017;BME280;65949;53.132;17.930;2023-09-18T00:17:38;101161.36;;;16.39;80.10
77017;BME280;65949;53.132;17.930;2023-09-18T00:20:05;101161.55;;;16.36;80.15
77017;BME280;65949;53.132;17.930;2023-09-18T00:22:33;101158.12;;;16.32;80.18
77017;BME280;65949;53.132;17.930;2023-09-18T00:25:00;101156.68;;;16.28;79.99
77017;BME280;65949;53.132;17.930;2023-09-18T00:27:28;101151.61;;;16.25;79.95
77017;BME280;65949;53.132;17.930;2023-09-18T00:29:55;101154.59;;;16.22;80.16
77017;BME280;65949;53.132;17.930;2023-09-18T00:32:22;101152.59;;;16.19;80.22
77017;BME280;65949;53.132;17.930;2023-09-18T00:34:48;101146.21;;;16.16;80.09
77017;BME280;65949;53.132;17.930;2023-09-18T00:37:15;101143.28;;;16.16;80.32
77017;BME280;65949;53.132;17.930;2023-09-18T00:39:43;101140.55;;;16.14;80.43
77017;BME280;65949;53.132;17.930;2023-09-18T00:42:10;101140.02;;;16.13;80.38
77017;BME280;65949;53.132;17.930;2023-09-18T00:44:40;101139.52;;;16.12;80.50
77017;BME280;65949;53.132;17.930;2023-09-18T00:47:08;101138.16;;;16.11;80.54
77017;BME280;65949;53.132;17.930;2023-09-18T00:49:36;101136.70;;;16.08;80.44
77017;BME280;65949;53.132;17.930;2023-09-18T00:52:06;101140.09;;;16.06;80.36
77017;BME280;65949;53.132;17.930;2023-09-18T00:54:34;101133.55;;;16.03;80.46
77017;BME280;65949;53.132;17.930;2023-09-18T00:57:02;101133.62;;;16.01;80.47
77017;BME280;65949;53.132;17.930;2023-09-18T00:59:29;101135.59;;;15.98;80.51
77017;BME280;65949;53.132;17.930;2023-09-18T01:01:57;101136.02;;;15.96;80.52
77017;BME280;65949;53.132;17.930;2023-09-18T01:04:25;101132.00;;;15.94;80.71
77017;BME280;65949;53.132;17.930;2023-09-18T01:06:53;101132.27;;;15.92;80.83
77017;BME280;65949;53.132;17.930;2023-09-18T01:09:23;101130.09;;;15.91;80.77
77017;BME280;65949;53.132;17.930;2023-09-18T01:14:37;101131.00;;;15.87;80.89
77017;BME280;65949;53.132;17.930;2023-09-18T01:17:09;101127.40;;;15.83;81.01
77017;BME280;65949;53.132;17.930;2023-09-18T01:19:41;101126.24;;;15.84;81.12
77017;BME280;65949;53.132;17.930;2023-09-18T01:22:09;101130.94;;;15.82;80.99
77017;BME280;65949;53.132;17.930;2023-09-18T01:24:37;101130.69;;;15.80;81.06
77017;BME280;65949;53.132;17.930;2023-09-18T01:27:08;101130.61;;;15.78;81.14
77017;BME280;65949;53.132;17.930;2023-09-18T01:29:35;101128.98;;;15.76;81.14
77017;BME280;65949;53.132;17.930;2023-09-18T01:32:02;101128.64;;;15.74;81.20
77017;BME280;65949;53.132;17.930;2023-09-18T01:34:35;101128.79;;;15.73;81.45
77017;BME280;65949;53.132;17.930;2023-09-18T01:37:07;101129.77;;;15.72;81.66
77017;BME280;65949;53.132;17.930;2023-09-18T01:39:35;101127.96;;;15.71;81.79
77017;BME280;65949;53.132;17.930;2023-09-18T01:42:03;101125.77;;;15.70;82.00
77017;BME280;65949;53.132;17.930;2023-09-18T01:44:32;101124.88;;;15.68;82.03
77017;BME280;65949;53.132;17.930;2023-09-18T01:47:02;101128.89;;;15.67;82.33
77017;BME280;65949;53.132;17.930;2023-09-18T01:49:33;101130.54;;;15.65;82.35
77017;BME280;65949;53.132;17.930;2023-09-18T01:52:01;101128.13;;;15.63;82.32
77017;BME280;65949;53.132;17.930;2023-09-18T01:54:29;101126.77;;;15.62;82.47
77017;BME280;65949;53.132;17.930;2023-09-18T01:56:56;101122.83;;;15.62;82.40
77017;BME280;65949;53.132;17.930;2023-09-18T01:59:24;101120.64;;;15.60;82.40
77017;BME280;65949;53.132;17.930;2023-09-18T02:01:52;101120.75;;;15.58;82.35
77017;BME280;65949;53.132;17.930;2023-09-18T02:04:19;101120.59;;;15.57;82.29
77017;BME280;65949;53.132;17.930;2023-09-18T02:06:47;101121.19;;;15.56;82.33
77017;BME280;65949;53.132;17.930;2023-09-18T02:09:14;101122.66;;;15.55;82.42
77017;BME280;65949;53.132;17.930;2023-09-18T02:11:43;101121.36;;;15.53;82.49
77017;BME280;65949;53.132;17.930;2023-09-18T02:14:10;101118.85;;;15.52;82.50
77017;BME280;65949;53.132;17.930;2023-09-18T02:16:39;101119.59;;;15.50;82.66
77017;BME280;65949;53.132;17.930;2023-09-18T02:19:10;101112.46;;;15.48;82.96
77017;BME280;65949;53.132;17.930;2023-09-18T02:21:37;101108.43;;;15.46;83.22
77017;BME280;65949;53.132;17.930;2023-09-18T02:24:06;101109.66;;;15.44;83.24
77017;BME280;65949;53.132;17.930;2023-09-18T02:26:33;101107.50;;;15.43;83.09
77017;BME280;65949;53.132;17.930;2023-09-18T02:29:02;101101.16;;;15.40;83.20
77017;BME280;65949;53.132;17.930;2023-09-18T02:31:30;101101.55;;;15.39;83.41
77017;BME280;65949;53.132;17.930;2023-09-18T02:33:57;101102.02;;;15.37;83.47
77017;BME280;65949;53.132;17.930;2023-09-18T02:36:24;101100.98;;;15.35;83.41
77017;BME280;65949;53.132;17.930;2023-09-18T02:38:51;101097.19;;;15.34;83.58
77017;BME280;65949;53.132;17.930;2023-09-18T02:41:17;101098.14;;;15.32;83.78
77017;BME280;65949;53.132;17.930;2023-09-18T02:43:44;101097.36;;;15.31;83.86
77017;BME280;65949;53.132;17.930;2023-09-18T02:46:10;101099.05;;;15.29;83.78
77017;BME280;65949;53.132;17.930;2023-09-18T02:48:37;101100.17;;;15.27;83.58
77017;BME280;65949;53.132;17.930;2023-09-18T02:51:05;101100.70;;;15.25;83.78
77017;BME280;65949;53.132;17.930;2023-09-18T02:53:31;101102.13;;;15.23;84.12
77017;BME280;65949;53.132;17.930;2023-09-18T02:55:59;101096.26;;;15.21;84.11
77017;BME280;65949;53.132;17.930;2023-09-18T02:58:26;101095.27;;;15.20;84.20
77017;BME280;65949;53.132;17.930;2023-09-18T03:00:56;101089.24;;;15.18;84.25
77017;BME280;65949;53.132;17.930;2023-09-18T03:03:26;101089.05;;;15.16;84.32
77017;BME280;65949;53.132;17.930;2023-09-18T03:06:00;101084.27;;;15.13;84.31
77017;BME280;65949;53.132;17.930;2023-09-18T03:08:27;101079.57;;;15.10;84.25
77017;BME280;65949;53.132;17.930;2023-09-18T03:10:53;101081.16;;;15.09;84.21
77017;BME280;65949;53.132;17.930;2023-09-18T03:13:21;101078.13;;;15.07;84.20
77017;BME280;65949;53.132;17.930;2023-09-18T03:15:48;101078.62;;;15.04;84.25
77017;BME280;65949;53.132;17.930;2023-09-18T03:18:15;101074.85;;;15.01;84.28
77017;BME280;65949;53.132;17.930;2023-09-18T03:20:42;101073.58;;;14.99;84.41
77017;BME280;65949;53.132;17.930;2023-09-18T03:23:09;101066.93;;;14.97;84.48
77017;BME280;65949;53.132;17.930;2023-09-18T03:25:36;101060.48;;;14.95;84.50
77017;BME280;65949;53.132;17.930;2023-09-18T03:28:06;101055.52;;;14.92;84.41
77017;BME280;65949;53.132;17.930;2023-09-18T03:30:33;101050.13;;;14.90;84.50
77017;BME280;65949;53.132;17.930;2023-09-18T03:33:00;101051.13;;;14.87;84.65
77017;BME280;65949;53.132;17.930;2023-09-18T03:35:30;101052.61;;;14.84;84.48
77017;BME280;65949;53.132;17.930;2023-09-18T03:37:57;101050.17;;;14.81;84.60
77017;BME280;65949;53.132;17.930;2023-09-18T03:40:24;101047.02;;;14.79;84.67
77017;BME280;65949;53.132;17.930;2023-09-18T03:42:50;101043.02;;;14.76;84.72
77017;BME280;65949;53.132;17.930;2023-09-18T03:45:17;101044.06;;;14.74;84.68
77017;BME280;65949;53.132;17.930;2023-09-18T03:47:46;101044.29;;;14.73;84.77
77017;BME280;65949;53.132;17.930;2023-09-18T03:50:12;101035.56;;;14.73;85.22
77017;BME280;65949;53.132;17.930;2023-09-18T03:52:40;101032.36;;;14.73;85.49
77017;BME280;65949;53.132;17.930;2023-09-18T03:55:07;101033.79;;;14.73;85.72
77017;BME280;65949;53.132;17.930;2023-09-18T03:57:34;101030.36;;;14.74;86.41
77017;BME280;65949;53.132;17.930;2023-09-18T04:00:02;101022.90;;;14.76;86.94
77017;BME280;65949;53.132;17.930;2023-09-18T04:02:38;101019.33;;;14.78;87.15
77017;BME280;65949;53.132;17.930;2023-09-18T04:05:06;101019.05;;;14.79;87.47
77017;BME280;65949;53.132;17.930;2023-09-18T04:07:33;101018.30;;;14.82;88.42
77017;BME280;65949;53.132;17.930;2023-09-18T04:10:01;101015.45;;;14.85;88.37
77017;BME280;65949;53.132;17.930;2023-09-18T04:12:29;101007.52;;;14.88;88.54
77017;BME280;65949;53.132;17.930;2023-09-18T04:14:56;101005.82;;;14.90;88.72
77017;BME280;65949;53.132;17.930;2023-09-18T04:17:23;101004.39;;;14.91;88.55
77017;BME280;65949;53.132;17.930;2023-09-18T04:19:49;101002.91;;;14.93;88.42
77017;BME280;65949;53.132;17.930;2023-09-18T04:22:16;101005.06;;;14.94;88.24
77017;BME280;65949;53.132;17.930;2023-09-18T04:24:42;101008.69;;;14.95;88.01
77017;BME280;65949;53.132;17.930;2023-09-18T04:27:10;101005.80;;;14.95;87.84
77017;BME280;65949;53.132;17.930;2023-09-18T04:29:37;101009.13;;;14.97;87.93
77017;BME280;65949;53.132;17.930;2023-09-18T04:32:04;101007.20;;;14.98;87.85
77017;BME280;65949;53.132;17.930;2023-09-18T04:34:31;101004.89;;;14.98;87.96
77017;BME280;65949;53.132;17.930;2023-09-18T04:36:58;101005.08;;;15.00;87.97
77017;BME280;65949;53.132;17.930;2023-09-18T04:39:25;101001.70;;;15.02;88.02
77017;BME280;65949;53.132;17.930;2023-09-18T04:41:51;101001.74;;;15.04;88.08
77017;BME280;65949;53.132;17.930;2023-09-18T04:44:18;101003.84;;;15.05;87.91
77017;BME280;65949;53.132;17.930;2023-09-18T04:46:45;100997.42;;;15.08;87.98
77017;BME280;65949;53.132;17.930;2023-09-18T04:49:12;100996.30;;;15.10;88.02
77017;BME280;65949;53.132;17.930;2023-09-18T04:51:39;100993.98;;;15.12;88.02
77017;BME280;65949;53.132;17.930;2023-09-18T04:54:06;100996.33;;;15.14;87.89
77017;BME280;65949;53.132;17.930;2023-09-18T04:56:33;100994.38;;;15.16;88.04
77017;BME280;65949;53.132;17.930;2023-09-18T04:59:00;100991.98;;;15.19;88.05
77017;BME280;65949;53.132;17.930;2023-09-18T05:01:27;100991.80;;;15.22;87.98
77017;BME280;65949;53.132;17.930;2023-09-18T05:03:54;100994.55;;;15.25;87.94
77017;BME280;65949;53.132;17.930;2023-09-18T05:06:20;100998.05;;;15.28;87.71
77017;BME280;65949;53.132;17.930;2023-09-18T05:08:47;100997.29;;;15.31;87.55
77017;BME280;65949;53.132;17.930;2023-09-18T05:11:14;100992.56;;;15.34;87.66
77017;BME280;65949;53.132;17.930;2023-09-18T05:13:40;100993.11;;;15.38;87.62
77017;BME280;65949;53.132;17.930;2023-09-18T05:16:07;100990.50;;;15.44;87.81
77017;BME280;65949;53.132;17.930;2023-09-18T05:18:34;100993.88;;;15.49;87.86
77017;BME280;65949;53.132;17.930;2023-09-18T05:21:00;100990.09;;;15.55;87.89
77017;BME280;65949;53.132;17.930;2023-09-18T05:23:29;100990.63;;;15.60;87.85
77017;BME280;65949;53.132;17.930;2023-09-18T05:25:56;100997.62;;;15.65;87.58
77017;BME280;65949;53.132;17.930;2023-09-18T05:28:22;100996.37;;;15.70;87.46
77017;BME280;65949;53.132;17.930;2023-09-18T05:30:49;100995.36;;;15.76;87.48
77017;BME280;65949;53.132;17.930;2023-09-18T05:33:16;100995.60;;;15.90;87.29
77017;BME280;65949;53.132;17.930;2023-09-18T05:35:43;100989.30;;;16.20;86.54
77017;BME280;65949;53.132;17.930;2023-09-18T05:38:11;100990.96;;;16.47;86.05
77017;BME280;65949;53.132;17.930;2023-09-18T05:40:40;100990.63;;;16.62;85.62
77017;BME280;65949;53.132;17.930;2023-09-18T05:43:07;100989.98;;;16.63;85.58
77017;BME280;65949;53.132;17.930;2023-09-18T05:45:34;100988.35;;;16.63;85.81
77017;BME280;65949;53.132;17.930;2023-09-18T05:48:01;100989.98;;;16.64;85.78
77017;BME280;65949;53.132;17.930;2023-09-18T05:50:31;100986.29;;;16.66;85.75
77017;BME280;65949;53.132;17.930;2023-09-18T05:52:59;100983.71;;;16.71;85.53
77017;BME280;65949;53.132;17.930;2023-09-18T05:55:27;100982.84;;;16.77;85.44
77017;BME280;65949;53.132;17.930;2023-09-18T05:57:54;100979.68;;;16.84;85.13
77017;BME280;65949;53.132;17.930;2023-09-18T06:00:21;100975.36;;;16.91;84.92
77017;BME280;65949;53.132;17.930;2023-09-18T06:02:48;100974.16;;;16.98;84.60
77017;BME280;65949;53.132;17.930;2023-09-18T06:05:15;100984.81;;;17.04;84.32
77017;BME280;65949;53.132;17.930;2023-09-18T06:07:42;100984.45;;;17.11;84.10
77017;BME280;65949;53.132;17.930;2023-09-18T06:10:10;100979.45;;;17.20;83.96
77017;BME280;65949;53.132;17.930;2023-09-18T06:12:40;100971.30;;;17.28;83.62
77017;BME280;65949;53.132;17.930;2023-09-18T06:15:08;100968.05;;;17.38;83.36
77017;BME280;65949;53.132;17.930;2023-09-18T06:17:39;100964.39;;;17.50;83.09
77017;BME280;65949;53.132;17.930;2023-09-18T06:20:07;100965.42;;;17.60;82.62
77017;BME280;65949;53.132;17.930;2023-09-18T06:22:37;100963.72;;;17.70;82.27
77017;BME280;65949;53.132;17.930;2023-09-18T06:25:08;100957.96;;;17.79;81.88
77017;BME280;65949;53.132;17.930;2023-09-18T06:27:38;100959.89;;;17.89;81.54
77017;BME280;65949;53.132;17.930;2023-09-18T06:30:06;100964.83;;;18.01;81.31
77017;BME280;65949;53.132;17.930;2023-09-18T06:32:33;100963.78;;;18.11;80.98
77017;BME280;65949;53.132;17.930;2023-09-18T06:35:00;100955.08;;;18.24;80.61
77017;BME280;65949;53.132;17.930;2023-09-18T06:37:27;100953.09;;;18.37;80.39
77017;BME280;65949;53.132;17.930;2023-09-18T06:39:54;100954.41;;;18.52;79.65
77017;BME280;65949;53.132;17.930;2023-09-18T06:42:22;100947.52;;;18.64;79.32
77017;BME280;65949;53.132;17.930;2023-09-18T06:44:57;100948.73;;;18.77;78.60
77017;BME280;65949;53.132;17.930;2023-09-18T06:47:24;100941.30;;;18.85;78.05
77017;BME280;65949;53.132;17.930;2023-09-18T06:49:51;100943.85;;;18.93;77.97
77017;BME280;65949;53.132;17.930;2023-09-18T06:52:18;100940.35;;;19.03;77.30
77017;BME280;65949;53.132;17.930;2023-09-18T06:54:44;100939.01;;;19.11;76.60
77017;BME280;65949;53.132;17.930;2023-09-18T06:57:11;100934.50;;;19.17;76.54
77017;BME280;65949;53.132;17.930;2023-09-18T06:59:37;100933.64;;;19.25;76.61
77017;BME280;65949;53.132;17.930;2023-09-18T07:02:04;100931.73;;;19.34;76.18
77017;BME280;65949;53.132;17.930;2023-09-18T07:04:31;100932.95;;;19.40;75.83
77017;BME280;65949;53.132;17.930;2023-09-18T07:06:57;100935.75;;;19.45;75.23
77017;BME280;65949;53.132;17.930;2023-09-18T07:09:24;100942.05;;;19.48;75.33
77017;BME280;65949;53.132;17.930;2023-09-18T07:11:52;100940.80;;;19.58;75.51
77017;BME280;65949;53.132;17.930;2023-09-18T07:14:18;100940.21;;;19.69;74.96
77017;BME280;65949;53.132;17.930;2023-09-18T07:16:45;100933.41;;;19.79;74.30
77017;BME280;65949;53.132;17.930;2023-09-18T07:19:12;100930.77;;;19.86;73.45
77017;BME280;65949;53.132;17.930;2023-09-18T07:21:43;100931.71;;;19.92;73.21
77017;BME280;65949;53.132;17.930;2023-09-18T07:24:10;100928.49;;;19.96;72.98
77017;BME280;65949;53.132;17.930;2023-09-18T07:26:44;100925.70;;;20.03;73.16
77017;BME280;65949;53.132;17.930;2023-09-18T07:29:12;100924.09;;;20.11;72.25
77017;BME280;65949;53.132;17.930;2023-09-18T07:31:39;100922.91;;;20.20;72.54
77017;BME280;65949;53.132;17.930;2023-09-18T07:34:06;100920.65;;;20.32;72.03
77017;BME280;65949;53.132;17.930;2023-09-18T07:36:33;100919.79;;;20.43;71.63
77017;BME280;65949;53.132;17.930;2023-09-18T07:38:59;100918.27;;;20.55;71.87
77017;BME280;65949;53.132;17.930;2023-09-18T07:41:26;100912.44;;;20.68;71.69
77017;BME280;65949;53.132;17.930;2023-09-18T07:43:53;100905.02;;;20.80;70.62
77017;BME280;65949;53.132;17.930;2023-09-18T07:46:20;100906.09;;;20.88;69.73
77017;BME280;65949;53.132;17.930;2023-09-18T07:48:46;100907.67;;;20.94;69.87
77017;BME280;65949;53.132;17.930;2023-09-18T07:51:13;100909.86;;;21.00;69.47
77017;BME280;65949;53.132;17.930;2023-09-18T07:53:39;100910.18;;;21.04;69.12
77017;BME280;65949;53.132;17.930;2023-09-18T07:56:06;100905.84;;;21.09;69.24
77017;BME280;65949;53.132;17.930;2023-09-18T07:58:33;100905.48;;;21.15;68.25
77017;BME280;65949;53.132;17.930;2023-09-18T08:01:00;100906.49;;;21.20;68.46
77017;BME280;65949;53.132;17.930;2023-09-18T08:03:27;100907.58;;;21.27;68.27
77017;BME280;65949;53.132;17.930;2023-09-18T08:05:55;100905.46;;;21.35;67.71
77017;BME280;65949;53.132;17.930;2023-09-18T08:08:22;100905.04;;;21.39;67.36
77017;BME280;65949;53.132;17.930;2023-09-18T08:10:51;100905.25;;;21.42;67.29
77017;BME280;65949;53.132;17.930;2023-09-18T08:13:17;100900.36;;;21.49;67.26
77017;BME280;65949;53.132;17.930;2023-09-18T08:15:46;100898.14;;;21.57;67.00
77017;BME280;65949;53.132;17.930;2023-09-18T08:18:12;100892.06;;;21.69;67.42
77017;BME280;65949;53.132;17.930;2023-09-18T08:20:42;100885.35;;;21.80;66.41
77017;BME280;65949;53.132;17.930;2023-09-18T08:23:10;100882.19;;;21.93;65.96
77017;BME280;65949;53.132;17.930;2023-09-18T08:25:36;100885.31;;;22.03;65.58
77017;BME280;65949;53.132;17.930;2023-09-18T08:28:03;100881.60;;;22.11;65.61
77017;BME280;65949;53.132;17.930;2023-09-18T08:30:31;100877.99;;;22.18;64.95
77017;BME280;65949;53.132;17.930;2023-09-18T08:32:57;100878.02;;;22.25;64.66
77017;BME280;65949;53.132;17.930;2023-09-18T08:35:24;100874.39;;;22.31;64.50
77017;BME280;65949;53.132;17.930;2023-09-18T08:37:55;100870.48;;;22.39;64.64
77017;BME280;65949;53.132;17.930;2023-09-18T08:40:23;100865.89;;;22.51;64.37
77017;BME280;65949;53.132;17.930;2023-09-18T08:42:51;100857.77;;;22.64;64.28
77017;BME280;65949;53.132;17.930;2023-09-18T08:45:34;100852.58;;;22.74;63.31
77017;BME280;65949;53.132;17.930;2023-09-18T08:48:02;100845.92;;;22.84;63.51
77017;BME280;65949;53.132;17.930;2023-09-18T08:50:29;100842.84;;;22.93;63.14
77017;BME280;65949;53.132;17.930;2023-09-18T08:52:56;100837.85;;;23.01;63.11
77017;BME280;65949;53.132;17.930;2023-09-18T08:55:24;100834.62;;;23.09;62.73
77017;BME280;65949;53.132;17.930;2023-09-18T08:57:51;100831.07;;;23.16;62.17
77017;BME280;65949;53.132;17.930;2023-09-18T09:00:19;100822.56;;;23.25;62.28
77017;BME280;65949;53.132;17.930;2023-09-18T09:02:46;100816.88;;;23.35;61.75
77017;BME280;65949;53.132;17.930;2023-09-18T09:05:17;100814.33;;;23.41;61.63
77017;BME280;65949;53.132;17.930;2023-09-18T09:07:44;100814.72;;;23.51;62.02
77017;BME280;65949;53.132;17.930;2023-09-18T09:10:11;100813.52;;;23.59;61.34
77017;BME280;65949;53.132;17.930;2023-09-18T09:12:53;100816.90;;;23.68;61.61
77017;BME280;65949;53.132;17.930;2023-09-18T09:15:22;100816.51;;;23.81;60.93
77017;BME280;65949;53.132;17.930;2023-09-18T09:17:51;100814.55;;;23.86;60.59
77017;BME280;65949;53.132;17.930;2023-09-18T09:20:18;100807.91;;;23.91;60.29
77017;BME280;65949;53.132;17.930;2023-09-18T09:22:45;100806.77;;;23.95;60.18
77017;BME280;65949;53.132;17.930;2023-09-18T09:25:21;100800.45;;;24.03;59.79
77017;BME280;65949;53.132;17.930;2023-09-18T09:27:48;100795.88;;;24.08;59.87
77017;BME280;65949;53.132;17.930;2023-09-18T09:30:25;100788.23;;;24.14;60.38
77017;BME280;65949;53.132;17.930;2023-09-18T09:32:56;100781.30;;;24.25;59.94
77017;BME280;65949;53.132;17.930;2023-09-18T09:35:27;100775.71;;;24.35;59.69
77017;BME280;65949;53.132;17.930;2023-09-18T09:37:59;100767.27;;;24.44;59.72
77017;BME280;65949;53.132;17.930;2023-09-18T09:40:30;100759.13;;;24.53;58.89
77017;BME280;65949;53.132;17.930;2023-09-18T09:42:58;100758.13;;;24.63;59.00
77017;BME280;65949;53.132;17.930;2023-09-18T09:45:29;100750.41;;;24.78;57.91
77017;BME280;65949;53.132;17.930;2023-09-18T09:47:57;100752.13;;;24.92;57.64
77017;BME280;65949;53.132;17.930;2023-09-18T09:50:24;100747.48;;;25.05;57.05
77017;BME280;65949;53.132;17.930;2023-09-18T09:52:54;100743.52;;;25.15;56.20
77017;BME280;65949;53.132;17.930;2023-09-18T09:55:25;100744.97;;;25.24;56.33
77017;BME280;65949;53.132;17.930;2023-09-18T09:58:05;100736.98;;;25.34;55.39
77017;BME280;65949;53.132;17.930;2023-09-18T10:00:33;100725.88;;;25.42;55.04
77017;BME280;65949;53.132;17.930;2023-09-18T10:03:12;100719.86;;;25.50;53.58
77017;BME280;65949;53.132;17.930;2023-09-18T10:05:43;100714.64;;;25.59;54.49
77017;BME280;65949;53.132;17.930;2023-09-18T10:08:17;100719.81;;;25.69;54.93
77017;BME280;65949;53.132;17.930;2023-09-18T10:10:50;100720.13;;;25.77;53.36
77017;BME280;65949;53.132;17.930;2023-09-18T10:13:19;100718.98;;;25.82;53.39
77017;BME280;65949;53.132;17.930;2023-09-18T10:15:50;100719.44;;;25.85;53.07
77017;BME280;65949;53.132;17.930;2023-09-18T10:24:20;100709.55;;;26.01;51.88
77017;BME280;65949;53.132;17.930;2023-09-18T10:26:57;100709.90;;;26.07;52.62
77017;BME280;65949;53.132;17.930;2023-09-18T10:29:25;100702.67;;;26.09;52.39
77017;BME280;65949;53.132;17.930;2023-09-18T10:31:53;100700.13;;;26.11;51.60
77017;BME280;65949;53.132;17.930;2023-09-18T10:34:21;100698.50;;;26.14;51.94
77017;BME280;65949;53.132;17.930;2023-09-18T10:36:50;100695.62;;;26.16;52.07
77017;BME280;65949;53.132;17.930;2023-09-18T10:39:17;100695.69;;;26.19;51.87
77017;BME280;65949;53.132;17.930;2023-09-18T10:41:48;100694.66;;;26.22;51.30
77017;BME280;65949;53.132;17.930;2023-09-18T10:44:16;100691.51;;;26.25;51.90
77017;BME280;65949;53.132;17.930;2023-09-18T10:46:46;100687.00;;;26.29;51.79
77017;BME280;65949;53.132;17.930;2023-09-18T10:49:14;100679.96;;;26.33;50.46
77017;BME280;65949;53.132;17.930;2023-09-18T10:51:42;100685.39;;;26.38;51.28
77017;BME280;65949;53.132;17.930;2023-09-18T10:54:10;100681.54;;;26.43;50.90
77017;BME280;65949;53.132;17.930;2023-09-18T10:56:38;100674.00;;;26.46;50.68
77017;BME280;65949;53.132;17.930;2023-09-18T10:59:07;100681.02;;;26.50;50.91
77017;BME280;65949;53.132;17.930;2023-09-18T11:01:35;100679.17;;;26.54;50.23
77017;BME280;65949;53.132;17.930;2023-09-18T11:04:07;100679.28;;;26.56;50.54
77017;BME280;65949;53.132;17.930;2023-09-18T11:09:30;100677.11;;;26.66;50.49
77017;BME280;65949;53.132;17.930;2023-09-18T11:17:32;100666.94;;;26.86;49.66
77017;BME280;65949;53.132;17.930;2023-09-18T11:20:18;100660.67;;;26.92;49.81
77017;BME280;65949;53.132;17.930;2023-09-18T11:22:59;100654.80;;;26.97;49.57
77017;BME280;65949;53.132;17.930;2023-09-18T11:25:36;100654.39;;;27.01;48.63
77017;BME280;65949;53.132;17.930;2023-09-18T11:28:08;100663.81;;;27.08;47.09
77017;BME280;65949;53.132;17.930;2023-09-18T11:30:35;100653.84;;;27.12;47.18
77017;BME280;65949;53.132;17.930;2023-09-18T11:33:06;100645.64;;;27.16;47.01
77017;BME280;65949;53.132;17.930;2023-09-18T11:35:35;100643.44;;;27.17;46.20
77017;BME280;65949;53.132;17.930;2023-09-18T11:38:09;100637.50;;;27.13;46.52
77017;BME280;65949;53.132;17.930;2023-09-18T11:40:40;100637.09;;;27.16;46.05
77017;BME280;65949;53.132;17.930;2023-09-18T11:43:22;100636.59;;;27.19;45.03
77017;BME280;65949;53.132;17.930;2023-09-18T11:45:59;100637.08;;;27.25;44.80
77017;BME280;65949;53.132;17.930;2023-09-18T11:48:28;100628.92;;;27.27;44.51
77017;BME280;65949;53.132;17.930;2023-09-18T11:50:57;100630.95;;;27.31;44.77
77017;BME280;65949;53.132;17.930;2023-09-18T11:53:27;100631.23;;;27.33;43.48
77017;BME280;65949;53.132;17.930;2023-09-18T11:55:54;100631.77;;;27.35;44.03
77017;BME280;65949;53.132;17.930;2023-09-18T11:58:22;100628.59;;;27.38;44.74
77017;BME280;65949;53.132;17.930;2023-09-18T12:00:50;100623.60;;;27.42;44.94
77017;BME280;65949;53.132;17.930;2023-09-18T12:03:19;100621.29;;;27.48;44.20
77017;BME280;65949;53.132;17.930;2023-09-18T12:05:53;100608.16;;;27.51;43.56
77017;BME280;65949;53.132;17.930;2023-09-18T12:08:22;100614.86;;;27.54;43.72
77017;BME280;65949;53.132;17.930;2023-09-18T12:10:50;100619.05;;;27.59;44.61
77017;BME280;65949;53.132;17.930;2023-09-18T12:13:17;100617.69;;;27.68;44.44
77017;BME280;65949;53.132;17.930;2023-09-18T12:15:44;100613.60;;;27.73;44.62
77017;BME280;65949;53.132;17.930;2023-09-18T12:18:11;100610.66;;;27.77;44.37
77017;BME280;65949;53.132;17.930;2023-09-18T12:20:48;100606.27;;;27.81;44.14
77017;BME280;65949;53.132;17.930;2023-09-18T12:23:16;100605.34;;;27.81;43.86
77017;BME280;65949;53.132;17.930;2023-09-18T12:25:45;100594.57;;;27.82;44.17
77017;BME280;65949;53.132;17.930;2023-09-18T12:28:13;100595.40;;;27.86;44.32
77017;BME280;65949;53.132;17.930;2023-09-18T12:30:43;100595.97;;;27.89;44.76
77017;BME280;65949;53.132;17.930;2023-09-18T12:33:10;100593.54;;;27.91;43.74
77017;BME280;65949;53.132;17.930;2023-09-18T12:35:37;100589.14;;;27.82;43.45
77017;BME280;65949;53.132;17.930;2023-09-18T12:38:17;100595.37;;;27.78;44.31
77017;BME280;65949;53.132;17.930;2023-09-18T12:40:45;100583.58;;;27.83;44.47
77017;BME280;65949;53.132;17.930;2023-09-18T12:43:14;100582.95;;;27.90;44.66
77017;BME280;65949;53.132;17.930;2023-09-18T12:45:44;100576.13;;;27.97;44.78
77017;BME280;65949;53.132;17.930;2023-09-18T12:48:13;100578.33;;;28.03;44.47
77017;BME280;65949;53.132;17.930;2023-09-18T12:50:40;100575.08;;;28.08;44.21
77017;BME280;65949;53.132;17.930;2023-09-18T12:53:14;100568.42;;;28.08;43.85
77017;BME280;65949;53.132;17.930;2023-09-18T12:55:42;100569.02;;;28.07;43.31
77017;BME280;65949;53.132;17.930;2023-09-18T12:58:12;100559.77;;;28.01;43.21
77017;BME280;65949;53.132;17.930;2023-09-18T13:00:48;100550.95;;;27.97;43.38
77017;BME280;65949;53.132;17.930;2023-09-18T13:03:18;100554.77;;;27.97;43.58